Union City, GA (30291)

8:22 AM EDT on October 01, 2014 (GMT -0400)
Rivertown Estates | Change Station
CLOSE
Current Station
Personal Weather Station
Location: Fairburn, GA
Elevation: 1007 ft
Nearby Weather Stations

Elev 1007 ft 33.57 °N, 84.65 °W | Updated 1 second ago

Partly Cloudy
Partly Cloudy
61.2 °F
Feels Like 61.2 °F
N
0.0
Wind Variable Wind from NNW
Gusts 0.0 mph

Today
High -- | Low -- °F
--% Chance of Precip.
Yesterday
High -- | Low -- °F
Precip. -- in
7:32 AM 7:22 PM
Waxing Crescent, 47% visible
Pressure 29.96 in
Visibility 10.0 miles
Clouds Few 15000 ft
Scattered Clouds 20000 ft
Scattered Clouds 25000 ft
Dew Point 57 °F
Humidity 85%
Rainfall 0.00 in
Snow Depth Not available.
UV 0 out of 12
Pollen 6.70 out of 12
Ozone Good
PM2.5 Moderate
Flu Activity Not available.
METAR KATL 011152Z 29005KT 10SM FEW150 SCT200 SCT250 18/17 A2998 RMK AO2 SLP145 T01780167 10194 20178 53011

More Conditions Fewer Conditions

Pressure 29.96 in
Visibility 10.0 miles
Clouds Few 15000 ft
Scattered Clouds 20000 ft
Scattered Clouds 25000 ft
Dew Point 57 °F
Humidity 85%
Rainfall 0.00 in
Snow Depth Not available.
UV 0 out of 12
Pollen 6.70 out of 12
Ozone Good
PM2.5 Moderate
Flu Activity Not available.
METAR KATL 011152Z 29005KT 10SM FEW150 SCT200 SCT250 18/17 A2998 RMK AO2 SLP145 T01780167 10194 20178 53011

More Conditions Fewer Conditions

10-Day Weather Forecast

Almanac

Astronomy

Oct. 01, 2014 Rise Set
Actual Time 7:32 AM EDT 7:22 PM EDT
Civil Twilight 7:07 AM EDT 7:47 PM EDT
Nautical Twilight 6:38 AM EDT 8:16 PM EDT
Astronomical Twilight 6:09 AM EDT 8:45 PM EDT
Moon 2:20 PM EDT 12:05 AM EDT
Length of Visible Light 12h 39m
Length of Day
11h 50m
Tomorrow will be 2m 4s shorter.
Waxing Crescent, 47% of the Moon is Illuminated
Today
Waxing Crescent
Oct 1
First Quarter
Oct 8
Full
Oct 15
Last Quarter
Oct 23
New

Today's Extremes

State Highs State Lows

Community

WunderPhotos

Upload Photos

1,757,916 photos uploaded!

Nearby

Air Quality

  Air Quality AQ Index Pollutant
Yesterday Good
OZONE
Yesterday Good
PM10
Current Moderate
PM2.5
Current Good
OZONE
Wednesday Good
PM2.5
Wednesday Good
OZONE

Snow Depth

Station Depth Elevation
No new snow has been reported.

Earthquake Activity

City Distance Mag. Time & Date
No recent earthquake activity has been reported nearby.
Minimum magnitude displayed is 2.5.

Coastal Water Temperatures

Place Temperature
No Stations Reporting

Nearby Weather Stations